Time;durP1;ratioP1;P1;durP2;ratioP2;P2;SDS_P1;SDS_P2;PMS_P1;PMS_P2;Temp;Humidity;BMP_temperature;BMP_pressure;BME280_temperature;BME280_humidity;BME280_pressure;Samples;Min_cycle;Max_cycle;Signal;HPM_P1;HPM_P2
2023/08/14 00:00:13;;;;;;;2.70;1.52;;;18.50;99.30;;;;;;5031995;28;20446;-80
2023/08/14 00:02:39;;;;;;;3.88;1.83;;;18.50;99.40;;;;;;5016147;28;20041;-80
2023/08/14 00:05:05;;;;;;;2.90;1.40;;;18.40;99.50;;;;;;5033347;28;20046;-80
2023/08/14 00:07:31;;;;;;;3.10;1.60;;;18.40;99.60;;;;;;5015537;28;20057;-80
2023/08/14 00:09:56;;;;;;;3.65;1.70;;;18.40;99.50;;;;;;5033646;28;20085;-80
2023/08/14 00:12:22;;;;;;;2.42;1.50;;;18.30;99.50;;;;;;5033200;28;20158;-80
2023/08/14 00:14:47;;;;;;;2.85;1.50;;;18.30;99.50;;;;;;5032027;28;20038;-80
2023/08/14 00:17:13;;;;;;;4.03;1.70;;;18.20;99.50;;;;;;5033161;28;20045;-80
2023/08/14 00:19:39;;;;;;;3.15;1.77;;;18.20;99.50;;;;;;5033446;28;20045;-80
2023/08/14 00:22:04;;;;;;;3.42;1.60;;;18.10;99.50;;;;;;5032783;28;20037;-79
2023/08/14 00:24:30;;;;;;;3.90;1.60;;;18.10;99.50;;;;;;5031731;28;20049;-80
2023/08/14 00:26:55;;;;;;;3.17;1.80;;;18.10;99.50;;;;;;5032960;28;20399;-80
2023/08/14 00:29:21;;;;;;;3.97;1.80;;;18.00;99.50;;;;;;5033093;28;20075;-80
2023/08/14 00:31:47;;;;;;;3.28;1.70;;;18.00;99.70;;;;;;5033283;28;20088;-80
2023/08/14 00:34:12;;;;;;;3.85;1.60;;;18.00;99.70;;;;;;5032693;28;20049;-80
2023/08/14 00:36:38;;;;;;;3.42;1.73;;;18.00;99.70;;;;;;5032633;28;20157;-80
2023/08/14 00:39:04;;;;;;;3.40;1.70;;;17.90;99.70;;;;;;5032487;28;20407;-80
2023/08/14 00:41:30;;;;;;;2.42;1.70;;;17.90;99.60;;;;;;5032480;28;20056;-80
2023/08/14 00:43:56;;;;;;;3.55;1.90;;;17.90;99.80;;;;;;5047889;28;20053;-80
2023/08/14 00:46:22;;;;;;;3.15;1.88;;;17.80;99.80;;;;;;5033370;28;20045;-80
2023/08/14 00:48:48;;;;;;;2.75;1.65;;;17.80;99.80;;;;;;5033253;28;20095;-80
2023/08/14 00:51:14;;;;;;;2.75;1.77;;;17.80;99.40;;;;;;5048360;28;20049;-80
2023/08/14 00:53:39;;;;;;;3.20;1.80;;;17.70;99.30;;;;;;5033305;28;20075;-80
2023/08/14 00:56:05;;;;;;;3.30;1.60;;;17.70;99.40;;;;;;5032481;28;20060;-80
2023/08/14 00:58:31;;;;;;;3.78;1.70;;;17.60;99.60;;;;;;5031357;28;20061;-80
2023/08/14 01:00:58;;;;;;;3.40;1.70;;;17.60;99.20;;;;;;5031025;28;20496;-80
2023/08/14 01:03:25;;;;;;;4.07;1.85;;;17.60;99.00;;;;;;5032528;28;20049;-80
2023/08/14 01:05:50;;;;;;;2.92;1.73;;;17.50;98.80;;;;;;5031625;28;20046;-80
2023/08/14 01:08:16;;;;;;;3.45;1.83;;;17.50;98.70;;;;;;5032201;28;20041;-77
2023/08/14 01:10:45;;;;;;;4.53;1.80;;;17.40;98.60;;;;;;5032290;28;20069;-80
2023/08/14 01:13:29;;;;;;;3.97;1.80;;;17.40;98.60;;;;;;5031479;28;20488;-80
2023/08/14 01:16:04;;;;;;;3.50;1.80;;;17.40;98.70;;;;;;5032430;28;20458;-80
2023/08/14 01:18:33;;;;;;;3.70;1.90;;;17.30;98.50;;;;;;5032106;28;20053;-80
2023/08/14 01:21:15;;;;;;;3.17;1.83;;;17.20;98.50;;;;;;5032330;28;20054;-80
2023/08/14 01:24:12;;;;;;;4.38;2.00;;;17.20;98.40;;;;;;5032177;28;20069;-79
2023/08/14 01:26:38;;;;;;;2.47;1.60;;;17.20;98.60;;;;;;5020293;28;20057;-79
2023/08/14 01:29:05;;;;;;;3.13;1.73;;;17.10;98.60;;;;;;5032491;28;20041;-79
2023/08/14 01:31:30;;;;;;;3.63;1.88;;;17.10;98.60;;;;;;5030076;28;20136;-80
2023/08/14 01:33:57;;;;;;;4.00;2.15;;;17.10;99.00;;;;;;5032090;28;20045;-80
2023/08/14 01:36:57;;;;;;;3.67;2.08;;;17.10;99.60;;;;;;5032045;28;20185;-79
2023/08/14 01:39:28;;;;;;;4.47;2.00;;;17.00;99.10;;;;;;5030746;28;20046;-80
2023/08/14 01:42:30;;;;;;;4.03;2.08;;;17.00;99.30;;;;;;5032037;28;20146;-80
2023/08/14 01:45:06;;;;;;;3.53;1.95;;;16.90;99.00;;;;;;5010557;28;20057;-79
2023/08/14 01:47:38;;;;;;;3.83;2.05;;;17.00;99.50;;;;;;5030751;28;20037;-80
2023/08/14 01:50:11;;;;;;;4.57;2.20;;;16.90;99.70;;;;;;5047916;28;20044;-79
2023/08/14 01:52:37;;;;;;;4.07;2.13;;;16.90;99.70;;;;;;5030814;28;20041;-80
2023/08/14 01:55:03;;;;;;;3.60;2.08;;;16.90;99.80;;;;;;5035581;28;20403;-80
2023/08/14 01:57:29;;;;;;;3.30;2.13;;;16.80;99.90;;;;;;5035534;28;20064;-80
2023/08/14 01:59:55;;;;;;;2.97;1.90;;;16.80;99.70;;;;;;5035446;28;20053;-79
2023/08/14 02:02:21;;;;;;;3.83;2.33;;;16.80;99.70;;;;;;5034373;28;20110;-80
2023/08/14 02:04:46;;;;;;;3.70;2.00;;;16.80;99.90;;;;;;5035790;28;20045;-80
2023/08/14 02:07:12;;;;;;;2.88;1.80;;;16.70;99.90;;;;;;5035465;28;20060;-80
2023/08/14 02:09:38;;;;;;;3.13;2.03;;;16.70;99.90;;;;;;5035602;28;20083;-80
2023/08/14 02:12:04;;;;;;;3.42;1.80;;;16.70;99.70;;;;;;5034117;28;20110;-78
2023/08/14 02:14:31;;;;;;;4.60;2.15;;;16.70;99.60;;;;;;5035120;28;20499;-81
2023/08/14 02:16:56;;;;;;;4.03;2.10;;;16.70;99.70;;;;;;5035531;28;20548;-79
2023/08/14 02:19:22;;;;;;;3.17;2.10;;;16.60;99.80;;;;;;5035102;28;20128;-80
2023/08/14 02:21:49;;;;;;;3.88;2.00;;;16.70;99.80;;;;;;5035186;28;20076;-80
2023/08/14 02:24:15;;;;;;;3.95;2.40;;;16.60;99.90;;;;;;5034942;28;20077;-79
2023/08/14 02:26:40;;;;;;;3.42;2.30;;;16.60;99.90;;;;;;5035867;28;20087;-80
2023/08/14 02:29:06;;;;;;;3.40;2.30;;;16.60;99.90;;;;;;5034917;28;20052;-80
2023/08/14 02:31:32;;;;;;;3.08;2.00;;;16.50;99.90;;;;;;5035616;28;20084;-79
2023/08/14 02:33:59;;;;;;;5.05;2.40;;;16.60;99.90;;;;;;5034371;28;20033;-80
2023/08/14 02:36:25;;;;;;;4.80;2.42;;;16.60;99.90;;;;;;5034686;28;20060;-80
2023/08/14 02:38:51;;;;;;;5.00;2.45;;;16.60;99.90;;;;;;5034836;28;20049;-79
2023/08/14 02:41:17;;;;;;;4.15;2.33;;;16.50;99.90;;;;;;5034526;28;20052;-80
2023/08/14 02:43:42;;;;;;;3.97;2.60;;;16.50;99.90;;;;;;5034292;28;20045;-80
2023/08/14 02:46:08;;;;;;;3.72;2.20;;;16.50;99.90;;;;;;5034175;28;20048;-79
2023/08/14 02:48:33;;;;;;;4.47;2.67;;;16.50;99.90;;;;;;5034376;28;20045;-80
2023/08/14 02:50:59;;;;;;;4.05;2.35;;;16.50;99.90;;;;;;5033166;28;20042;-79
2023/08/14 02:53:24;;;;;;;4.15;2.50;;;16.40;99.90;;;;;;5034310;28;20553;-79
2023/08/14 02:55:51;;;;;;;4.60;2.40;;;16.50;99.90;;;;;;5034885;28;20060;-80
2023/08/14 02:58:17;;;;;;;5.22;2.50;;;16.40;99.90;;;;;;5034142;28;20042;-80
2023/08/14 03:00:48;;;;;;;3.92;2.47;;;16.40;99.90;;;;;;5034258;28;20049;-79
2023/08/14 03:03:14;;;;;;;4.20;2.60;;;16.30;99.90;;;;;;5034358;28;20064;-80
2023/08/14 03:05:40;;;;;;;5.13;2.90;;;16.30;99.90;;;;;;5034223;28;21254;-79
2023/08/14 03:08:06;;;;;;;4.97;2.50;;;16.30;99.90;;;;;;5033110;28;20060;-79
2023/08/14 03:10:32;;;;;;;3.85;2.35;;;16.30;99.90;;;;;;5033753;28;20037;-79
2023/08/14 03:12:57;;;;;;;4.22;2.60;;;16.30;99.90;;;;;;5034698;28;20464;-80
2023/08/14 03:15:23;;;;;;;4.50;2.80;;;16.20;99.60;;;;;;5049643;28;20068;-79
2023/08/14 03:17:49;;;;;;;4.10;2.35;;;16.20;99.50;;;;;;5034537;28;20041;-79
2023/08/14 03:20:15;;;;;;;4.50;2.70;;;16.20;99.40;;;;;;5033657;28;20502;-80
2023/08/14 03:22:41;;;;;;;3.80;2.33;;;16.20;99.50;;;;;;5016345;28;20056;-79
2023/08/14 03:25:07;;;;;;;4.60;2.60;;;16.10;99.40;;;;;;5032699;28;20041;-79
2023/08/14 03:27:33;;;;;;;4.60;2.35;;;16.10;99.50;;;;;;5033296;28;20079;-79
2023/08/14 03:29:59;;;;;;;5.38;2.67;;;16.10;99.50;;;;;;5030178;28;20041;-79
2023/08/14 03:32:24;;;;;;;4.20;2.55;;;16.10;99.40;;;;;;5032456;28;20088;-79
2023/08/14 03:34:51;;;;;;;4.40;2.72;;;16.00;99.50;;;;;;5033202;28;20128;-79
2023/08/14 03:37:17;;;;;;;4.18;2.60;;;16.10;99.60;;;;;;5034300;28;20049;-79
2023/08/14 03:39:43;;;;;;;3.58;2.53;;;16.00;99.60;;;;;;5033621;28;20045;-80
2023/08/14 03:42:09;;;;;;;4.60;2.80;;;16.00;99.90;;;;;;5032493;28;20388;-79
2023/08/14 03:44:34;;;;;;;4.43;2.80;;;16.00;99.60;;;;;;5034286;28;20061;-80
2023/08/14 03:47:00;;;;;;;7.13;2.78;;;16.00;99.70;;;;;;5034237;28;20384;-80
2023/08/14 03:49:26;;;;;;;4.32;2.60;;;16.00;99.80;;;;;;5034072;28;20057;-79
2023/08/14 03:51:51;;;;;;;4.53;2.80;;;15.90;99.80;;;;;;5033868;28;20396;-80
2023/08/14 03:54:17;;;;;;;5.18;3.10;;;15.90;99.90;;;;;;5033526;28;20049;-79
2023/08/14 03:56:42;;;;;;;5.50;2.80;;;15.90;99.90;;;;;;5034065;28;20046;-79
2023/08/14 03:59:08;;;;;;;4.05;2.75;;;15.90;99.90;;;;;;5033006;28;20053;-80
2023/08/14 04:01:36;;;;;;;4.70;2.88;;;15.90;99.90;;;;;;5026413;28;20717;-79
2023/08/14 04:04:02;;;;;;;6.13;3.17;;;15.90;99.90;;;;;;5033433;28;20044;-78
2023/08/14 04:06:28;;;;;;;5.63;3.00;;;15.90;99.90;;;;;;5033431;28;20049;-79
2023/08/14 04:08:57;;;;;;;4.53;2.72;;;15.90;99.90;;;;;;5031404;28;20064;-79
2023/08/14 04:11:23;;;;;;;4.82;2.83;;;15.80;99.90;;;;;;5032654;28;20502;-79
2023/08/14 04:13:49;;;;;;;4.38;2.85;;;15.80;99.90;;;;;;5032245;28;20076;-79
2023/08/14 04:16:14;;;;;;;4.88;2.65;;;15.80;99.90;;;;;;5031729;28;20041;-79
2023/08/14 04:18:40;;;;;;;6.47;2.65;;;15.80;99.90;;;;;;5033775;28;20045;-79
2023/08/14 04:21:06;;;;;;;4.60;2.95;;;15.80;99.90;;;;;;5033781;28;20077;-79
2023/08/14 04:23:31;;;;;;;4.60;2.90;;;15.80;99.90;;;;;;5032787;28;20509;-79
2023/08/14 04:25:57;;;;;;;6.97;3.30;;;15.80;99.90;;;;;;5033302;28;20120;-79
2023/08/14 04:28:23;;;;;;;10.63;4.05;;;15.80;99.90;;;;;;5032220;28;20135;-80
2023/08/14 04:30:49;;;;;;;7.43;3.92;;;15.80;99.90;;;;;;5033327;28;20096;-79
2023/08/14 04:33:15;;;;;;;11.60;4.00;;;15.80;99.80;;;;;;5032861;28;20395;-80
2023/08/14 04:35:41;;;;;;;9.70;4.28;;;15.70;99.90;;;;;;5032441;28;20057;-80
2023/08/14 04:38:07;;;;;;;7.82;3.58;;;15.70;99.90;;;;;;5033464;28;20052;-80
2023/08/14 04:40:33;;;;;;;7.97;4.07;;;15.80;99.90;;;;;;5033287;28;20040;-80
2023/08/14 04:42:58;;;;;;;7.60;3.80;;;15.70;99.90;;;;;;5033065;28;20506;-79
2023/08/14 04:45:24;;;;;;;8.93;4.18;;;15.70;99.90;;;;;;5033177;28;20044;-80
2023/08/14 04:47:49;;;;;;;6.97;3.80;;;15.70;99.90;;;;;;5032585;28;20045;-79
2023/08/14 04:50:15;;;;;;;7.18;3.60;;;15.70;99.90;;;;;;5031980;28;20462;-79
2023/08/14 04:52:41;;;;;;;7.05;4.10;;;15.70;99.90;;;;;;5033154;28;20042;-79
2023/08/14 04:55:07;;;;;;;7.80;3.70;;;15.70;99.90;;;;;;5033002;28;20045;-80
2023/08/14 04:57:32;;;;;;;6.85;4.05;;;15.70;99.90;;;;;;5032904;28;20068;-79
2023/08/14 04:59:58;;;;;;;6.70;3.75;;;15.70;99.90;;;;;;5031927;28;20057;-80
2023/08/14 05:02:24;;;;;;;7.60;3.97;;;15.70;99.90;;;;;;5032496;28;20048;-79
2023/08/14 05:04:49;;;;;;;7.80;3.80;;;15.70;99.90;;;;;;5033000;28;20468;-80
2023/08/14 05:07:15;;;;;;;5.15;3.55;;;15.70;99.70;;;;;;5033059;28;20114;-79
2023/08/14 05:09:41;;;;;;;8.68;4.60;;;15.60;99.60;;;;;;5033111;28;20495;-79
2023/08/14 05:12:08;;;;;;;8.43;4.65;;;15.60;99.80;;;;;;5032852;28;20522;-80
2023/08/14 05:14:34;;;;;;;6.82;4.05;;;15.70;99.90;;;;;;5032931;28;20102;-79
2023/08/14 05:17:00;;;;;;;8.77;4.35;;;15.70;99.80;;;;;;5032243;28;20046;-79
2023/08/14 05:19:26;;;;;;;7.80;4.30;;;15.70;99.70;;;;;;5032836;28;20056;-79
2023/08/14 05:21:51;;;;;;;5.57;3.72;;;15.70;99.70;;;;;;5032672;28;20124;-79
2023/08/14 05:24:17;;;;;;;7.18;3.85;;;15.70;99.60;;;;;;5031735;28;20120;-79
2023/08/14 05:26:43;;;;;;;7.72;4.18;;;15.70;99.90;;;;;;5035720;28;20085;-80
2023/08/14 05:29:09;;;;;;;5.28;3.63;;;15.70;99.80;;;;;;5035826;28;20049;-79
2023/08/14 05:31:34;;;;;;;9.38;4.00;;;15.70;99.70;;;;;;5036279;28;20052;-80
2023/08/14 05:34:00;;;;;;;5.93;3.90;;;15.70;99.60;;;;;;5036889;28;20553;-79
2023/08/14 05:36:25;;;;;;;8.13;4.10;;;15.70;99.50;;;;;;5036608;28;20049;-80
2023/08/14 05:38:51;;;;;;;9.65;5.90;;;15.70;99.40;;;;;;5036688;28;20046;-79
2023/08/14 05:41:18;;;;;;;6.82;4.00;;;15.70;99.90;;;;;;5036600;28;20077;-80
2023/08/14 05:43:44;;;;;;;7.55;4.20;;;15.80;99.80;;;;;;5036559;28;20046;-79
2023/08/14 05:46:10;;;;;;;6.78;3.80;;;15.80;99.60;;;;;;5036451;28;20550;-80
2023/08/14 05:48:35;;;;;;;8.35;5.45;;;15.80;99.40;;;;;;5035598;28;20080;-79
2023/08/14 05:51:01;;;;;;;7.72;4.47;;;15.80;99.90;;;;;;5036398;28;20805;-79
2023/08/14 05:53:26;;;;;;;9.18;4.18;;;15.80;99.90;;;;;;5036505;28;20040;-80
2023/08/14 05:55:52;;;;;;;8.75;4.97;;;15.80;99.80;;;;;;5034970;28;20515;-79
2023/08/14 05:58:18;;;;;;;8.02;4.68;;;15.80;99.90;;;;;;5034895;28;20089;-79
2023/08/14 06:00:43;;;;;;;8.80;4.70;;;15.80;99.90;;;;;;5036004;28;20045;-79
2023/08/14 06:03:09;;;;;;;5.53;3.38;;;15.90;99.90;;;;;;5036349;28;20088;-79
2023/08/14 06:05:35;;;;;;;6.22;3.92;;;15.90;99.90;;;;;;5036636;28;20056;-80
2023/08/14 06:08:01;;;;;;;11.18;6.13;;;16.00;99.90;;;;;;5036292;28;20403;-80
2023/08/14 06:10:27;;;;;;;12.00;5.88;;;16.00;99.90;;;;;;5036057;28;20037;-80
2023/08/14 06:12:53;;;;;;;7.47;4.78;;;16.00;99.90;;;;;;5031779;28;20120;-80
2023/08/14 06:15:19;;;;;;;11.73;7.22;;;16.00;99.90;;;;;;5034668;28;20052;-80
2023/08/14 06:17:46;;;;;;;10.25;6.38;;;16.10;99.90;;;;;;5036142;28;20052;-80
2023/08/14 06:20:12;;;;;;;7.70;4.65;;;16.10;99.90;;;;;;5035026;28;20049;-80
2023/08/14 06:22:46;;;;;;;12.18;6.95;;;16.20;99.90;;;;;;5035386;28;20042;-80
2023/08/14 06:25:13;;;;;;;8.05;4.93;;;16.20;99.90;;;;;;5035833;28;20049;-80
2023/08/14 06:27:39;;;;;;;10.45;6.05;;;16.20;99.90;;;;;;5035564;28;20047;-80
2023/08/14 06:30:10;;;;;;;8.13;4.45;;;16.30;99.90;;;;;;5035877;28;20046;-80
2023/08/14 06:32:36;;;;;;;7.68;4.85;;;16.40;99.90;;;;;;5035637;28;20053;-80
2023/08/14 06:35:03;;;;;;;11.73;5.95;;;16.40;99.90;;;;;;5035475;28;20068;-80
2023/08/14 06:37:29;;;;;;;7.70;4.95;;;16.50;99.90;;;;;;5034302;28;20465;-80
2023/08/14 06:39:55;;;;;;;13.45;6.65;;;16.50;99.90;;;;;;5035316;28;20068;-80
2023/08/14 06:42:20;;;;;;;6.45;4.68;;;16.50;99.90;;;;;;5034545;28;20072;-79
2023/08/14 06:44:46;;;;;;;7.45;4.72;;;16.60;99.90;;;;;;5034823;28;20041;-79
2023/08/14 06:47:12;;;;;;;12.13;5.95;;;16.60;99.90;;;;;;5034933;28;20095;-80
2023/08/14 06:49:37;;;;;;;11.85;6.35;;;16.60;99.90;;;;;;5034914;28;20049;-80
2023/08/14 06:52:03;;;;;;;9.80;5.35;;;16.70;99.90;;;;;;5035391;28;20056;-80
2023/08/14 06:54:29;;;;;;;19.25;9.77;;;16.70;99.90;;;;;;5035220;28;20077;-80
2023/08/14 06:56:55;;;;;;;6.35;4.22;;;16.70;99.90;;;;;;5035001;28;20407;-80
2023/08/14 06:59:20;;;;;;;10.20;5.70;;;16.80;99.90;;;;;;5034858;28;20049;-79
2023/08/14 07:01:46;;;;;;;13.23;7.63;;;16.80;99.90;;;;;;5034925;28;20049;-80
2023/08/14 07:04:12;;;;;;;13.38;7.78;;;16.80;99.90;;;;;;5016992;28;20084;-79
2023/08/14 07:06:38;;;;;;;10.35;5.95;;;16.90;99.90;;;;;;5025127;28;20058;-80
2023/08/14 07:09:03;;;;;;;13.32;7.85;;;16.90;99.90;;;;;;5014967;28;20045;-80
2023/08/14 07:11:36;;;;;;;11.88;7.15;;;16.90;99.90;;;;;;5021763;28;20073;-80
2023/08/14 07:14:02;;;;;;;14.63;8.07;;;17.00;99.90;;;;;;5017765;28;20041;-80
2023/08/14 07:16:28;;;;;;;17.02;9.60;;;17.10;99.90;;;;;;5033949;28;20045;-80
2023/08/14 07:18:53;;;;;;;13.60;8.43;;;17.10;99.90;;;;;;5032017;28;20454;-80
2023/08/14 07:21:19;;;;;;;11.32;7.30;;;17.10;99.90;;;;;;5015106;28;20050;-80
2023/08/14 07:23:45;;;;;;;11.02;5.50;;;17.20;99.90;;;;;;5034036;28;20045;-80
2023/08/14 07:26:13;;;;;;;10.82;5.93;;;17.30;99.90;;;;;;5029002;28;20084;-80
2023/08/14 07:28:40;;;;;;;12.13;6.18;;;17.30;99.90;;;;;;5023762;28;20057;-80
2023/08/14 07:31:07;;;;;;;11.95;7.45;;;17.40;99.90;;;;;;5031509;28;20057;-80
2023/08/14 07:33:32;;;;;;;17.90;8.57;;;17.50;99.90;;;;;;5023678;28;20057;-80
2023/08/14 07:35:59;;;;;;;8.15;5.60;;;17.60;99.90;;;;;;5019388;28;20042;-80
2023/08/14 07:38:30;;;;;;;12.82;7.30;;;17.60;99.90;;;;;;5014369;28;20050;-80
2023/08/14 07:40:56;;;;;;;12.75;7.95;;;17.80;99.90;;;;;;5027970;28;20049;-80
2023/08/14 07:43:22;;;;;;;10.88;6.60;;;17.80;99.90;;;;;;5021057;28;20056;-80
2023/08/14 07:45:48;;;;;;;8.85;5.57;;;17.90;99.90;;;;;;5033081;28;20407;-80
2023/08/14 07:48:14;;;;;;;13.50;6.18;;;18.00;99.90;;;;;;5034058;28;20053;-80
2023/08/14 07:50:40;;;;;;;7.85;4.65;;;18.10;99.90;;;;;;5033279;28;20048;-80
2023/08/14 07:53:05;;;;;;;10.02;5.60;;;18.10;99.90;;;;;;5034216;28;20117;-80
2023/08/14 07:55:31;;;;;;;14.75;6.93;;;18.20;99.90;;;;;;5033928;28;20494;-80
2023/08/14 07:57:57;;;;;;;15.05;6.28;;;18.30;99.90;;;;;;5033762;28;20053;-80
2023/08/14 08:00:22;;;;;;;12.00;5.88;;;18.30;99.90;;;;;;5033317;28;20087;-80
2023/08/14 08:02:48;;;;;;;10.13;5.70;;;18.40;99.90;;;;;;5033720;28;20045;-80
2023/08/14 08:05:15;;;;;;;8.55;4.60;;;18.40;99.90;;;;;;5033933;28;20053;-80
2023/08/14 08:07:41;;;;;;;8.93;5.05;;;18.50;99.90;;;;;;5033844;28;20045;-80
2023/08/14 08:10:07;;;;;;;10.93;5.18;;;18.60;99.90;;;;;;5033919;28;20053;-80
2023/08/14 08:12:33;;;;;;;10.18;5.20;;;18.60;99.90;;;;;;5033479;28;20053;-80
2023/08/14 08:14:59;;;;;;;11.05;5.47;;;18.70;99.90;;;;;;5033819;28;20399;-80
2023/08/14 08:17:24;;;;;;;11.30;5.40;;;18.70;99.90;;;;;;5033791;28;20041;-80
2023/08/14 08:19:51;;;;;;;12.35;5.25;;;18.80;99.90;;;;;;5032600;28;20049;-80
2023/08/14 08:22:17;;;;;;;10.85;4.65;;;18.80;99.90;;;;;;5032080;28;20471;-80
2023/08/14 08:24:42;;;;;;;8.75;4.00;;;18.90;99.90;;;;;;5032430;28;20598;-80
2023/08/14 08:27:08;;;;;;;10.40;4.55;;;19.00;99.90;;;;;;5033626;28;20081;-80
2023/08/14 08:29:33;;;;;;;11.90;4.30;;;19.00;99.90;;;;;;5016182;28;20131;-80
2023/08/14 08:31:59;;;;;;;10.65;4.15;;;19.10;99.90;;;;;;5032866;28;20041;-80
2023/08/14 08:34:24;;;;;;;10.27;3.83;;;19.20;99.90;;;;;;5032538;28;20045;-80
2023/08/14 08:36:53;;;;;;;9.63;3.88;;;19.30;99.90;;;;;;5033168;28;20492;-80
2023/08/14 08:39:22;;;;;;;9.20;3.78;;;19.40;99.90;;;;;;5033538;28;20042;-80
2023/08/14 08:41:48;;;;;;;9.63;3.70;;;19.50;99.90;;;;;;5033197;28;20048;-80
2023/08/14 08:44:33;;;;;;;11.02;3.45;;;19.60;99.90;;;;;;5033280;28;20495;-80
2023/08/14 08:47:10;;;;;;;10.75;3.80;;;19.60;99.90;;;;;;5033158;28;20394;-80
2023/08/14 08:49:36;;;;;;;8.20;3.35;;;19.70;99.90;;;;;;5031500;28;20089;-80
2023/08/14 08:52:03;;;;;;;11.50;3.83;;;19.80;99.90;;;;;;5033057;28;20487;-80
2023/08/14 08:54:30;;;;;;;11.82;3.70;;;19.90;99.90;;;;;;5033096;28;20041;-80
2023/08/14 08:57:00;;;;;;;8.23;3.15;;;20.00;99.90;;;;;;5032784;28;20060;-80
2023/08/14 08:59:26;;;;;;;9.48;3.70;;;20.00;99.90;;;;;;5032781;28;20072;-80
2023/08/14 09:01:52;;;;;;;8.70;2.90;;;20.10;99.90;;;;;;5032574;28;20087;-80
2023/08/14 09:04:18;;;;;;;9.90;3.28;;;20.10;99.90;;;;;;5031972;28;20045;-80
2023/08/14 09:06:43;;;;;;;9.77;3.40;;;20.20;99.90;;;;;;5030989;28;20556;-79
2023/08/14 09:09:12;;;;;;;15.13;4.07;;;20.20;99.90;;;;;;5032721;28;20468;-80
2023/08/14 09:11:38;;;;;;;11.32;3.58;;;20.30;99.90;;;;;;5031763;28;20077;-80
2023/08/14 09:14:04;;;;;;;12.02;3.42;;;20.40;99.90;;;;;;5032921;28;20084;-80
2023/08/14 09:16:30;;;;;;;7.15;3.03;;;20.50;99.90;;;;;;5031060;28;20050;-80
2023/08/14 09:18:59;;;;;;;11.85;3.22;;;20.60;99.90;;;;;;5033055;28;20259;-80
2023/08/14 09:21:26;;;;;;;9.40;2.85;;;20.70;99.90;;;;;;5031742;28;20091;-80
2023/08/14 09:23:52;;;;;;;8.20;2.10;;;20.80;99.90;;;;;;5032870;28;20041;-80
2023/08/14 09:26:18;;;;;;;8.77;2.22;;;20.80;99.70;;;;;;5032857;28;20060;-80
2023/08/14 09:28:44;;;;;;;6.30;2.03;;;20.90;99.20;;;;;;5032286;28;20049;-80
2023/08/14 09:31:12;;;;;;;8.68;2.47;;;21.00;98.70;;;;;;5032624;28;20502;-80
2023/08/14 09:33:39;;;;;;;8.45;2.28;;;21.10;98.70;;;;;;5032870;28;20041;-80
2023/08/14 09:36:06;;;;;;;6.40;2.13;;;21.10;98.40;;;;;;5030740;28;20049;-79
2023/08/14 09:38:31;;;;;;;7.53;2.20;;;21.20;98.30;;;;;;5032157;28;20050;-80
2023/08/14 09:40:58;;;;;;;5.85;1.90;;;21.30;98.30;;;;;;5032335;28;20033;-80
2023/08/14 09:43:25;;;;;;;6.88;1.80;;;21.30;98.20;;;;;;5032101;28;20045;-80
2023/08/14 09:45:52;;;;;;;5.80;1.67;;;21.40;97.90;;;;;;5032131;28;20051;-79
2023/08/14 09:48:18;;;;;;;5.45;1.80;;;21.50;97.40;;;;;;5016985;28;20034;-80
2023/08/14 09:50:51;;;;;;;7.35;2.00;;;21.60;97.60;;;;;;5011744;28;20045;-80
2023/08/14 09:53:17;;;;;;;6.03;2.00;;;21.70;96.90;;;;;;5012739;28;20077;-80
2023/08/14 09:55:43;;;;;;;8.07;1.70;;;21.70;96.50;;;;;;5019749;28;20057;-80
2023/08/14 09:58:12;;;;;;;8.88;1.65;;;21.80;96.50;;;;;;5012608;28;20057;-80
2023/08/14 10:00:38;;;;;;;8.20;1.85;;;21.90;96.20;;;;;;5045851;28;20034;-80
2023/08/14 10:03:09;;;;;;;8.40;2.00;;;21.90;96.10;;;;;;5021937;28;20524;-79
2023/08/14 10:05:37;;;;;;;4.78;1.60;;;22.00;95.80;;;;;;5020470;28;20061;-80
2023/08/14 10:08:07;;;;;;;5.40;1.50;;;22.10;95.90;;;;;;5031228;28;20038;-80
2023/08/14 10:10:36;;;;;;;7.50;1.95;;;22.20;95.70;;;;;;5025733;28;20518;-80
2023/08/14 10:13:05;;;;;;;7.78;1.70;;;22.20;95.20;;;;;;5033333;28;20052;-80
2023/08/14 10:15:43;;;;;;;5.72;1.60;;;22.30;94.90;;;;;;5022496;28;20121;-80
2023/08/14 10:18:31;;;;;;;6.55;1.77;;;22.40;94.70;;;;;;5023251;28;20582;-80
2023/08/14 10:21:04;;;;;;;5.85;1.80;;;22.50;94.90;;;;;;5031245;28;20494;-80
2023/08/14 10:23:34;;;;;;;;;;;22.60;94.70;;;;;;5030252;28;20594;-80
2023/08/14 10:26:00;;;;;;;6.35;1.70;;;22.60;95.10;;;;;;5035346;28;20298;-80
2023/08/14 10:28:26;;;;;;;6.30;1.80;;;22.70;95.10;;;;;;5026859;28;20121;-80
2023/08/14 10:30:55;;;;;;;7.45;1.70;;;22.80;94.70;;;;;;5030161;28;20056;-80
2023/08/14 10:33:22;;;;;;;6.57;1.80;;;22.80;93.70;;;;;;5028252;28;20053;-80
2023/08/14 10:35:49;;;;;;;6.03;1.40;;;22.90;94.10;;;;;;5028082;28;20050;-79
2023/08/14 10:38:16;;;;;;;7.95;1.80;;;23.00;94.20;;;;;;5029797;28;20053;-80
2023/08/14 10:41:27;;;;;;;6.82;1.63;;;23.00;93.80;;;;;;5022608;28;20049;-80
2023/08/14 10:44:04;;;;;;;6.20;1.45;;;23.10;93.60;;;;;;5027740;28;20057;-81
2023/08/14 10:46:29;;;;;;;6.32;1.75;;;23.10;94.30;;;;;;5015363;28;20480;-80
2023/08/14 10:48:55;;;;;;;6.32;1.48;;;23.20;94.20;;;;;;5035311;28;20037;-80
2023/08/14 10:51:21;;;;;;;6.30;1.58;;;23.20;94.20;;;;;;5027109;28;20041;-81
2023/08/14 10:54:06;;;;;;;5.25;1.42;;;23.30;94.50;;;;;;5033230;28;20042;-80
2023/08/14 10:56:49;;;;;;;8.65;2.17;;;23.40;94.20;;;;;;5020002;28;20056;-80
2023/08/14 10:59:19;;;;;;;7.03;1.70;;;23.40;93.50;;;;;;5024436;28;20093;-81
2023/08/14 11:01:51;;;;;;;8.82;1.65;;;23.50;92.90;;;;;;5032894;28;20050;-80
2023/08/14 11:04:18;;;;;;;6.82;2.05;;;23.50;93.30;;;;;;5039403;28;20048;-81
2023/08/14 11:07:05;;;;;;;9.23;1.55;;;23.60;92.80;;;;;;5028089;28;20119;-81
2023/08/14 11:09:36;;;;;;;5.70;1.80;;;23.70;93.00;;;;;;5031268;28;20053;-81
2023/08/14 11:12:07;;;;;;;5.47;1.50;;;23.70;92.70;;;;;;5032192;28;20041;-81
2023/08/14 11:14:38;;;;;;;5.97;1.60;;;23.80;94.10;;;;;;5027584;28;20483;-81
2023/08/14 11:17:04;;;;;;;4.15;1.20;;;23.90;93.60;;;;;;5030948;28;20038;-81
2023/08/14 11:19:30;;;;;;;7.55;1.85;;;23.90;93.80;;;;;;5020485;28;20049;-80
2023/08/14 11:21:56;;;;;;;5.03;1.50;;;23.90;94.30;;;;;;5034705;28;20125;-81
2023/08/14 11:24:21;;;;;;;4.38;1.42;;;24.00;94.80;;;;;;5020048;28;20037;-81
2023/08/14 11:26:47;;;;;;;7.90;1.45;;;24.00;94.80;;;;;;5022719;28;20480;-81
2023/08/14 11:29:13;;;;;;;6.68;1.42;;;24.10;93.10;;;;;;5031900;28;20045;-81
2023/08/14 11:31:42;;;;;;;3.72;1.30;;;24.10;93.20;;;;;;5033262;28;20045;-81
2023/08/14 11:34:08;;;;;;;5.30;1.50;;;24.10;94.10;;;;;;5034042;28;20103;-81
2023/08/14 11:36:34;;;;;;;5.97;1.60;;;24.10;94.30;;;;;;5034870;28;20403;-81
2023/08/14 11:38:59;;;;;;;7.05;1.60;;;24.20;93.70;;;;;;5038572;28;20537;-81
2023/08/14 11:41:25;;;;;;;5.82;1.40;;;24.20;92.60;;;;;;5053402;28;20482;-81
2023/08/14 11:43:50;;;;;;;4.13;1.30;;;24.30;91.90;;;;;;5054215;28;20045;-81
2023/08/14 11:46:17;;;;;;;4.53;1.15;;;24.30;91.90;;;;;;5040511;28;20048;-81
2023/08/14 11:48:43;;;;;;;6.03;1.40;;;24.30;93.00;;;;;;5034033;28;20049;-81
2023/08/14 11:51:09;;;;;;;4.75;1.30;;;24.40;92.10;;;;;;5033155;28;20058;-81
2023/08/14 11:53:35;;;;;;;5.68;1.30;;;24.50;92.80;;;;;;5034240;28;20052;-81
2023/08/14 11:56:02;;;;;;;2.58;1.00;;;24.50;92.10;;;;;;5034180;28;20045;-81
2023/08/14 11:58:28;;;;;;;5.68;1.42;;;24.50;93.30;;;;;;5034130;28;20160;-81
2023/08/14 12:00:54;;;;;;;5.85;1.35;;;24.60;91.30;;;;;;5033969;28;20173;-81
2023/08/14 12:03:20;;;;;;;3.97;1.02;;;24.70;91.70;;;;;;5033314;28;20041;-81
2023/08/14 12:05:47;;;;;;;4.68;1.20;;;24.70;93.40;;;;;;5033543;28;20426;-81
2023/08/14 12:08:13;;;;;;;5.60;1.42;;;24.80;93.10;;;;;;5016080;28;20060;-81
2023/08/14 12:10:40;;;;;;;6.25;1.60;;;24.80;91.10;;;;;;5033893;28;20042;-81
2023/08/14 12:13:06;;;;;;;5.25;1.70;;;24.80;91.40;;;;;;5033372;28;20037;-81
2023/08/14 12:15:32;;;;;;;5.97;1.40;;;24.80;90.60;;;;;;5033103;28;20152;-81
2023/08/14 12:17:57;;;;;;;7.20;1.67;;;24.90;89.60;;;;;;5032509;28;20419;-82
2023/08/14 12:20:23;;;;;;;6.57;1.50;;;24.90;91.20;;;;;;5033318;28;20052;-81
2023/08/14 12:22:49;;;;;;;4.90;1.30;;;24.90;90.70;;;;;;5033407;28;20372;-81
2023/08/14 12:25:19;;;;;;;6.75;1.55;;;25.00;91.30;;;;;;5015752;28;20042;-82
2023/08/14 12:27:46;;;;;;;4.70;1.27;;;25.00;89.70;;;;;;5033541;28;20083;-82
2023/08/14 12:30:12;;;;;;;4.90;1.50;;;25.00;91.20;;;;;;5033374;28;20041;-82
2023/08/14 12:32:47;;;;;;;5.28;1.40;;;25.10;91.20;;;;;;5032899;28;20392;-80
2023/08/14 12:35:13;;;;;;;5.05;1.33;;;25.10;90.70;;;;;;5031754;28;20153;-81
2023/08/14 12:37:38;;;;;;;8.00;1.90;;;25.20;91.20;;;;;;5033379;28;20582;-82
2023/08/14 12:40:08;;;;;;;7.63;1.70;;;25.20;90.10;;;;;;5032098;28;20060;-82
2023/08/14 12:42:36;;;;;;;8.10;1.45;;;25.20;88.10;;;;;;5033323;28;20136;-82
2023/08/14 12:45:02;;;;;;;5.30;1.55;;;25.30;88.80;;;;;;5032231;28;20391;-82